sensor_id;sensor_type;location;lat;lon;timestamp;P1;durP1;ratioP1;P2;durP2;ratioP2
71080;SDS011;58740;50.672;18.690;2022-11-04T00:01:54;17.40;;;8.80;;
71080;SDS011;58740;50.672;18.690;2022-11-04T00:04:27;21.10;;;10.00;;
71080;SDS011;58740;50.672;18.690;2022-11-04T00:06:56;18.40;;;8.20;;
71080;SDS011;58740;50.672;18.690;2022-11-04T00:09:28;21.60;;;8.80;;
71080;SDS011;58740;50.672;18.690;2022-11-04T00:11:57;21.90;;;8.70;;
71080;SDS011;58740;50.672;18.690;2022-11-04T00:14:43;20.60;;;9.60;;
71080;SDS011;58740;50.672;18.690;2022-11-04T00:17:11;23.70;;;8.80;;
71080;SDS011;58740;50.672;18.690;2022-11-04T00:19:51;18.70;;;8.40;;
71080;SDS011;58740;50.672;18.690;2022-11-04T00:22:41;20.70;;;8.00;;
71080;SDS011;58740;50.672;18.690;2022-11-04T00:25:28;18.90;;;7.20;;
71080;SDS011;58740;50.672;18.690;2022-11-04T00:28:16;20.40;;;9.20;;
71080;SDS011;58740;50.672;18.690;2022-11-04T00:31:06;20.00;;;9.00;;
71080;SDS011;58740;50.672;18.690;2022-11-04T00:33:54;19.80;;;8.40;;
71080;SDS011;58740;50.672;18.690;2022-11-04T00:36:25;20.70;;;8.80;;
71080;SDS011;58740;50.672;18.690;2022-11-04T00:38:53;19.90;;;8.80;;
71080;SDS011;58740;50.672;18.690;2022-11-04T00:41:21;18.80;;;8.10;;
71080;SDS011;58740;50.672;18.690;2022-11-04T00:43:59;18.70;;;8.80;;
71080;SDS011;58740;50.672;18.690;2022-11-04T00:46:30;21.10;;;10.10;;
71080;SDS011;58740;50.672;18.690;2022-11-04T00:48:59;20.90;;;9.40;;
71080;SDS011;58740;50.672;18.690;2022-11-04T00:51:27;17.80;;;8.50;;
71080;SDS011;58740;50.672;18.690;2022-11-04T00:53:55;19.50;;;9.00;;
71080;SDS011;58740;50.672;18.690;2022-11-04T00:56:24;19.00;;;9.40;;
71080;SDS011;58740;50.672;18.690;2022-11-04T00:58:52;22.40;;;10.50;;
71080;SDS011;58740;50.672;18.690;2022-11-04T01:01:20;21.80;;;8.70;;
71080;SDS011;58740;50.672;18.690;2022-11-04T01:03:51;20.00;;;8.80;;
71080;SDS011;58740;50.672;18.690;2022-11-04T01:06:21;17.80;;;7.40;;
71080;SDS011;58740;50.672;18.690;2022-11-04T01:09:04;15.10;;;5.80;;
71080;SDS011;58740;50.672;18.690;2022-11-04T01:11:34;18.60;;;7.50;;
71080;SDS011;58740;50.672;18.690;2022-11-04T01:14:02;18.50;;;8.40;;
71080;SDS011;58740;50.672;18.690;2022-11-04T01:16:30;17.20;;;7.70;;
71080;SDS011;58740;50.672;18.690;2022-11-04T01:18:58;17.60;;;7.90;;
71080;SDS011;58740;50.672;18.690;2022-11-04T01:21:26;16.30;;;7.60;;
71080;SDS011;58740;50.672;18.690;2022-11-04T01:23:54;19.50;;;8.30;;
71080;SDS011;58740;50.672;18.690;2022-11-04T01:26:23;14.80;;;7.80;;
71080;SDS011;58740;50.672;18.690;2022-11-04T01:28:55;17.50;;;7.90;;
71080;SDS011;58740;50.672;18.690;2022-11-04T01:31:27;17.30;;;7.60;;
71080;SDS011;58740;50.672;18.690;2022-11-04T01:33:57;14.10;;;6.40;;
71080;SDS011;58740;50.672;18.690;2022-11-04T01:36:26;18.80;;;7.70;;
71080;SDS011;58740;50.672;18.690;2022-11-04T01:38:55;16.10;;;7.80;;
71080;SDS011;58740;50.672;18.690;2022-11-04T01:41:26;17.80;;;8.50;;
71080;SDS011;58740;50.672;18.690;2022-11-04T01:46:52;19.00;;;9.30;;
71080;SDS011;58740;50.672;18.690;2022-11-04T01:49:32;16.90;;;7.90;;
71080;SDS011;58740;50.672;18.690;2022-11-04T01:52:14;15.30;;;6.40;;
71080;SDS011;58740;50.672;18.690;2022-11-04T01:54:47;12.30;;;6.60;;
71080;SDS011;58740;50.672;18.690;2022-11-04T01:57:24;13.20;;;5.70;;
71080;SDS011;58740;50.672;18.690;2022-11-04T02:00:00;13.00;;;6.30;;
71080;SDS011;58740;50.672;18.690;2022-11-04T02:02:30;13.20;;;5.60;;
71080;SDS011;58740;50.672;18.690;2022-11-04T02:04:59;13.90;;;6.90;;
71080;SDS011;58740;50.672;18.690;2022-11-04T02:07:27;20.60;;;8.70;;
71080;SDS011;58740;50.672;18.690;2022-11-04T02:09:55;15.20;;;6.40;;
71080;SDS011;58740;50.672;18.690;2022-11-04T02:12:24;11.80;;;5.40;;
71080;SDS011;58740;50.672;18.690;2022-11-04T02:15:10;14.00;;;5.90;;
71080;SDS011;58740;50.672;18.690;2022-11-04T02:18:02;12.70;;;5.40;;
71080;SDS011;58740;50.672;18.690;2022-11-04T02:20:56;12.50;;;6.60;;
71080;SDS011;58740;50.672;18.690;2022-11-04T02:23:52;14.10;;;7.30;;
71080;SDS011;58740;50.672;18.690;2022-11-04T02:29:46;13.30;;;6.20;;
71080;SDS011;58740;50.672;18.690;2022-11-04T02:35:21;12.40;;;5.70;;
71080;SDS011;58740;50.672;18.690;2022-11-04T02:44:17;13.50;;;5.40;;
71080;SDS011;58740;50.672;18.690;2022-11-04T02:47:12;14.00;;;6.30;;
71080;SDS011;58740;50.672;18.690;2022-11-04T02:49:56;13.50;;;6.60;;
71080;SDS011;58740;50.672;18.690;2022-11-04T02:52:46;15.40;;;6.70;;
71080;SDS011;58740;50.672;18.690;2022-11-04T02:55:29;14.40;;;6.30;;
71080;SDS011;58740;50.672;18.690;2022-11-04T02:58:09;15.60;;;5.80;;
71080;SDS011;58740;50.672;18.690;2022-11-04T03:00:41;17.50;;;6.90;;
71080;SDS011;58740;50.672;18.690;2022-11-04T03:03:34;14.10;;;6.50;;
71080;SDS011;58740;50.672;18.690;2022-11-04T03:06:09;12.80;;;6.60;;
71080;SDS011;58740;50.672;18.690;2022-11-04T03:08:46;12.10;;;6.70;;
71080;SDS011;58740;50.672;18.690;2022-11-04T03:11:20;16.20;;;7.20;;
71080;SDS011;58740;50.672;18.690;2022-11-04T03:13:59;14.40;;;6.30;;
71080;SDS011;58740;50.672;18.690;2022-11-04T03:16:42;16.30;;;6.70;;
71080;SDS011;58740;50.672;18.690;2022-11-04T03:19:51;16.60;;;6.90;;
71080;SDS011;58740;50.672;18.690;2022-11-04T03:22:24;14.10;;;6.00;;
71080;SDS011;58740;50.672;18.690;2022-11-04T03:24:56;13.50;;;6.60;;
71080;SDS011;58740;50.672;18.690;2022-11-04T03:27:47;12.40;;;5.20;;
71080;SDS011;58740;50.672;18.690;2022-11-04T03:30:19;13.50;;;6.80;;
71080;SDS011;58740;50.672;18.690;2022-11-04T03:35:53;13.90;;;6.10;;
71080;SDS011;58740;50.672;18.690;2022-11-04T03:38:21;9.60;;;4.60;;
71080;SDS011;58740;50.672;18.690;2022-11-04T03:40:50;15.00;;;5.90;;
71080;SDS011;58740;50.672;18.690;2022-11-04T03:43:22;13.90;;;5.70;;
71080;SDS011;58740;50.672;18.690;2022-11-04T03:45:53;19.30;;;5.90;;
71080;SDS011;58740;50.672;18.690;2022-11-04T03:48:22;15.20;;;6.40;;
71080;SDS011;58740;50.672;18.690;2022-11-04T03:50:50;10.00;;;5.30;;
71080;SDS011;58740;50.672;18.690;2022-11-04T03:53:23;13.60;;;6.10;;
71080;SDS011;58740;50.672;18.690;2022-11-04T03:56:17;13.00;;;5.10;;
71080;SDS011;58740;50.672;18.690;2022-11-04T04:01:59;11.00;;;4.60;;
71080;SDS011;58740;50.672;18.690;2022-11-04T04:04:50;11.50;;;5.40;;
71080;SDS011;58740;50.672;18.690;2022-11-04T04:07:58;13.40;;;6.10;;
71080;SDS011;58740;50.672;18.690;2022-11-04T04:17:24;11.90;;;5.70;;
71080;SDS011;58740;50.672;18.690;2022-11-04T04:23:01;14.80;;;6.00;;
71080;SDS011;58740;50.672;18.690;2022-11-04T04:25:57;12.80;;;5.20;;
71080;SDS011;58740;50.672;18.690;2022-11-04T04:28:47;13.10;;;6.10;;
71080;SDS011;58740;50.672;18.690;2022-11-04T04:31:19;11.40;;;5.50;;
71080;SDS011;58740;50.672;18.690;2022-11-04T04:34:07;11.00;;;4.10;;
71080;SDS011;58740;50.672;18.690;2022-11-04T04:36:51;11.30;;;4.50;;
71080;SDS011;58740;50.672;18.690;2022-11-04T04:39:26;12.00;;;6.00;;
71080;SDS011;58740;50.672;18.690;2022-11-04T04:42:18;14.60;;;7.10;;
71080;SDS011;58740;50.672;18.690;2022-11-04T04:45:05;13.30;;;5.90;;
71080;SDS011;58740;50.672;18.690;2022-11-04T04:47:44;13.60;;;5.90;;
71080;SDS011;58740;50.672;18.690;2022-11-04T04:50:16;13.80;;;5.80;;
71080;SDS011;58740;50.672;18.690;2022-11-04T04:52:48;11.50;;;5.60;;
71080;SDS011;58740;50.672;18.690;2022-11-04T04:55:17;17.00;;;5.60;;
71080;SDS011;58740;50.672;18.690;2022-11-04T04:57:45;12.20;;;5.30;;
71080;SDS011;58740;50.672;18.690;2022-11-04T05:00:16;13.30;;;6.20;;
71080;SDS011;58740;50.672;18.690;2022-11-04T05:02:45;11.20;;;5.50;;
71080;SDS011;58740;50.672;18.690;2022-11-04T05:05:14;16.30;;;6.80;;
71080;SDS011;58740;50.672;18.690;2022-11-04T05:07:43;18.20;;;6.80;;
71080;SDS011;58740;50.672;18.690;2022-11-04T05:10:12;14.20;;;6.20;;
71080;SDS011;58740;50.672;18.690;2022-11-04T05:12:41;11.50;;;5.10;;
71080;SDS011;58740;50.672;18.690;2022-11-04T05:15:30;16.80;;;6.50;;
71080;SDS011;58740;50.672;18.690;2022-11-04T05:17:59;12.80;;;6.60;;
71080;SDS011;58740;50.672;18.690;2022-11-04T05:20:29;16.20;;;7.30;;
71080;SDS011;58740;50.672;18.690;2022-11-04T05:22:59;12.80;;;6.10;;
71080;SDS011;58740;50.672;18.690;2022-11-04T05:25:27;12.80;;;6.00;;
71080;SDS011;58740;50.672;18.690;2022-11-04T05:27:58;9.80;;;4.70;;
71080;SDS011;58740;50.672;18.690;2022-11-04T05:30:28;16.50;;;7.30;;
71080;SDS011;58740;50.672;18.690;2022-11-04T05:32:56;15.90;;;7.40;;
71080;SDS011;58740;50.672;18.690;2022-11-04T05:35:30;15.20;;;6.40;;
71080;SDS011;58740;50.672;18.690;2022-11-04T05:37:58;16.70;;;6.30;;
71080;SDS011;58740;50.672;18.690;2022-11-04T05:40:26;13.80;;;5.60;;
71080;SDS011;58740;50.672;18.690;2022-11-04T05:42:56;14.90;;;6.00;;
71080;SDS011;58740;50.672;18.690;2022-11-04T05:45:26;12.20;;;5.80;;
71080;SDS011;58740;50.672;18.690;2022-11-04T05:47:59;14.70;;;6.60;;
71080;SDS011;58740;50.672;18.690;2022-11-04T05:50:29;10.20;;;4.60;;
71080;SDS011;58740;50.672;18.690;2022-11-04T05:52:59;15.90;;;6.10;;
71080;SDS011;58740;50.672;18.690;2022-11-04T05:55:27;9.30;;;4.80;;
71080;SDS011;58740;50.672;18.690;2022-11-04T05:57:55;12.10;;;6.00;;
71080;SDS011;58740;50.672;18.690;2022-11-04T06:00:25;11.80;;;6.00;;
71080;SDS011;58740;50.672;18.690;2022-11-04T06:02:54;16.50;;;6.30;;
71080;SDS011;58740;50.672;18.690;2022-11-04T06:05:26;15.30;;;6.30;;
71080;SDS011;58740;50.672;18.690;2022-11-04T06:07:55;15.70;;;7.00;;
71080;SDS011;58740;50.672;18.690;2022-11-04T06:10:24;10.60;;;5.60;;
71080;SDS011;58740;50.672;18.690;2022-11-04T06:12:51;13.70;;;6.40;;
71080;SDS011;58740;50.672;18.690;2022-11-04T06:15:19;13.80;;;6.60;;
71080;SDS011;58740;50.672;18.690;2022-11-04T06:17:47;16.20;;;6.90;;
71080;SDS011;58740;50.672;18.690;2022-11-04T06:20:14;13.80;;;6.80;;
71080;SDS011;58740;50.672;18.690;2022-11-04T06:22:42;14.30;;;6.40;;
71080;SDS011;58740;50.672;18.690;2022-11-04T06:25:10;13.90;;;6.00;;
71080;SDS011;58740;50.672;18.690;2022-11-04T06:27:38;11.50;;;5.20;;
71080;SDS011;58740;50.672;18.690;2022-11-04T06:30:07;12.40;;;5.30;;
71080;SDS011;58740;50.672;18.690;2022-11-04T06:32:35;11.40;;;4.80;;
71080;SDS011;58740;50.672;18.690;2022-11-04T06:35:03;11.10;;;5.10;;
71080;SDS011;58740;50.672;18.690;2022-11-04T06:37:30;17.20;;;6.70;;
71080;SDS011;58740;50.672;18.690;2022-11-04T06:39:58;13.50;;;6.40;;
71080;SDS011;58740;50.672;18.690;2022-11-04T06:42:26;13.20;;;6.10;;
71080;SDS011;58740;50.672;18.690;2022-11-04T06:44:54;10.70;;;5.10;;
71080;SDS011;58740;50.672;18.690;2022-11-04T06:47:22;13.50;;;7.20;;
71080;SDS011;58740;50.672;18.690;2022-11-04T06:49:51;15.50;;;6.30;;
71080;SDS011;58740;50.672;18.690;2022-11-04T06:52:19;15.80;;;6.80;;
71080;SDS011;58740;50.672;18.690;2022-11-04T06:54:47;13.50;;;5.80;;
71080;SDS011;58740;50.672;18.690;2022-11-04T06:57:14;15.80;;;7.20;;
71080;SDS011;58740;50.672;18.690;2022-11-04T06:59:42;15.90;;;7.10;;
71080;SDS011;58740;50.672;18.690;2022-11-04T07:02:10;20.70;;;8.80;;
71080;SDS011;58740;50.672;18.690;2022-11-04T07:04:37;16.00;;;7.10;;
71080;SDS011;58740;50.672;18.690;2022-11-04T07:07:05;11.70;;;6.10;;
71080;SDS011;58740;50.672;18.690;2022-11-04T07:09:33;15.60;;;7.40;;
71080;SDS011;58740;50.672;18.690;2022-11-04T07:12:01;12.90;;;7.10;;
71080;SDS011;58740;50.672;18.690;2022-11-04T07:14:29;12.20;;;6.20;;
71080;SDS011;58740;50.672;18.690;2022-11-04T07:16:57;14.40;;;6.60;;
71080;SDS011;58740;50.672;18.690;2022-11-04T07:19:25;12.20;;;6.10;;
71080;SDS011;58740;50.672;18.690;2022-11-04T07:21:53;17.00;;;7.10;;
71080;SDS011;58740;50.672;18.690;2022-11-04T07:24:20;13.10;;;6.10;;
71080;SDS011;58740;50.672;18.690;2022-11-04T07:26:48;12.40;;;5.30;;
71080;SDS011;58740;50.672;18.690;2022-11-04T07:29:16;13.00;;;5.30;;
71080;SDS011;58740;50.672;18.690;2022-11-04T07:31:44;13.70;;;6.30;;
71080;SDS011;58740;50.672;18.690;2022-11-04T07:34:12;12.40;;;5.70;;
71080;SDS011;58740;50.672;18.690;2022-11-04T07:36:39;14.80;;;6.20;;
71080;SDS011;58740;50.672;18.690;2022-11-04T07:39:07;15.80;;;7.20;;
71080;SDS011;58740;50.672;18.690;2022-11-04T07:41:35;13.70;;;6.40;;
71080;SDS011;58740;50.672;18.690;2022-11-04T07:44:03;15.10;;;7.10;;
71080;SDS011;58740;50.672;18.690;2022-11-04T07:46:32;29.10;;;14.00;;
71080;SDS011;58740;50.672;18.690;2022-11-04T07:48:59;20.20;;;10.50;;
71080;SDS011;58740;50.672;18.690;2022-11-04T07:51:28;17.80;;;7.80;;
71080;SDS011;58740;50.672;18.690;2022-11-04T07:53:59;12.10;;;5.60;;
71080;SDS011;58740;50.672;18.690;2022-11-04T07:56:27;12.00;;;6.20;;
71080;SDS011;58740;50.672;18.690;2022-11-04T07:58:55;14.50;;;6.00;;
71080;SDS011;58740;50.672;18.690;2022-11-04T08:01:23;15.20;;;6.80;;
71080;SDS011;58740;50.672;18.690;2022-11-04T08:03:51;11.80;;;5.50;;
71080;SDS011;58740;50.672;18.690;2022-11-04T08:06:20;14.40;;;5.90;;
71080;SDS011;58740;50.672;18.690;2022-11-04T08:08:48;9.10;;;4.20;;
71080;SDS011;58740;50.672;18.690;2022-11-04T08:11:22;15.70;;;6.60;;
71080;SDS011;58740;50.672;18.690;2022-11-04T08:13:55;14.90;;;7.20;;
71080;SDS011;58740;50.672;18.690;2022-11-04T08:16:24;20.80;;;7.20;;
71080;SDS011;58740;50.672;18.690;2022-11-04T08:18:59;16.50;;;6.90;;
71080;SDS011;58740;50.672;18.690;2022-11-04T08:21:30;18.50;;;7.90;;
71080;SDS011;58740;50.672;18.690;2022-11-04T08:23:59;17.40;;;7.30;;
71080;SDS011;58740;50.672;18.690;2022-11-04T08:26:29;12.90;;;5.80;;
71080;SDS011;58740;50.672;18.690;2022-11-04T08:28:57;15.80;;;6.30;;
71080;SDS011;58740;50.672;18.690;2022-11-04T08:31:27;15.30;;;6.50;;
71080;SDS011;58740;50.672;18.690;2022-11-04T08:33:56;15.10;;;5.80;;
71080;SDS011;58740;50.672;18.690;2022-11-04T08:36:30;14.80;;;6.00;;
71080;SDS011;58740;50.672;18.690;2022-11-04T08:39:01;15.60;;;6.10;;
71080;SDS011;58740;50.672;18.690;2022-11-04T08:41:40;15.90;;;7.00;;
71080;SDS011;58740;50.672;18.690;2022-11-04T08:44:11;18.60;;;7.10;;
71080;SDS011;58740;50.672;18.690;2022-11-04T08:46:42;16.80;;;6.60;;
71080;SDS011;58740;50.672;18.690;2022-11-04T08:49:11;17.80;;;7.20;;
71080;SDS011;58740;50.672;18.690;2022-11-04T08:51:46;16.00;;;6.70;;
71080;SDS011;58740;50.672;18.690;2022-11-04T08:54:15;16.40;;;7.00;;
71080;SDS011;58740;50.672;18.690;2022-11-04T08:56:43;12.50;;;6.50;;
71080;SDS011;58740;50.672;18.690;2022-11-04T08:59:11;16.00;;;6.60;;
71080;SDS011;58740;50.672;18.690;2022-11-04T09:01:39;15.70;;;6.70;;
71080;SDS011;58740;50.672;18.690;2022-11-04T09:04:10;18.10;;;7.00;;
71080;SDS011;58740;50.672;18.690;2022-11-04T09:06:41;15.30;;;7.20;;
71080;SDS011;58740;50.672;18.690;2022-11-04T09:09:15;17.80;;;7.00;;
71080;SDS011;58740;50.672;18.690;2022-11-04T09:11:45;18.30;;;7.60;;
71080;SDS011;58740;50.672;18.690;2022-11-04T09:14:13;19.40;;;7.70;;
71080;SDS011;58740;50.672;18.690;2022-11-04T09:16:41;23.50;;;8.40;;
71080;SDS011;58740;50.672;18.690;2022-11-04T09:19:09;20.20;;;7.90;;
71080;SDS011;58740;50.672;18.690;2022-11-04T09:21:37;19.20;;;7.90;;
71080;SDS011;58740;50.672;18.690;2022-11-04T09:24:05;20.50;;;8.40;;
71080;SDS011;58740;50.672;18.690;2022-11-04T09:26:35;14.70;;;6.50;;
71080;SDS011;58740;50.672;18.690;2022-11-04T09:29:03;21.40;;;7.80;;
71080;SDS011;58740;50.672;18.690;2022-11-04T09:31:30;18.30;;;7.90;;
71080;SDS011;58740;50.672;18.690;2022-11-04T09:33:58;23.90;;;9.00;;
71080;SDS011;58740;50.672;18.690;2022-11-04T09:36:26;23.70;;;9.70;;
71080;SDS011;58740;50.672;18.690;2022-11-04T09:38:55;22.60;;;8.90;;
71080;SDS011;58740;50.672;18.690;2022-11-04T09:44:52;16.90;;;6.80;;
71080;SDS011;58740;50.672;18.690;2022-11-04T09:47:50;14.80;;;6.80;;
71080;SDS011;58740;50.672;18.690;2022-11-04T09:50:31;16.70;;;7.10;;
71080;SDS011;58740;50.672;18.690;2022-11-04T09:53:21;20.10;;;8.20;;
71080;SDS011;58740;50.672;18.690;2022-11-04T09:55:56;19.20;;;10.10;;
71080;SDS011;58740;50.672;18.690;2022-11-04T09:58:33;21.60;;;10.30;;
71080;SDS011;58740;50.672;18.690;2022-11-04T10:01:20;27.20;;;12.40;;
71080;SDS011;58740;50.672;18.690;2022-11-04T10:07:54;15.40;;;7.00;;
71080;SDS011;58740;50.672;18.690;2022-11-04T10:10:38;17.80;;;7.80;;
71080;SDS011;58740;50.672;18.690;2022-11-04T10:22:01;13.20;;;5.80;;
71080;SDS011;58740;50.672;18.690;2022-11-04T10:24:48;14.10;;;6.00;;
71080;SDS011;58740;50.672;18.690;2022-11-04T10:27:44;14.80;;;8.10;;
71080;SDS011;58740;50.672;18.690;2022-11-04T10:30:16;12.50;;;6.50;;
71080;SDS011;58740;50.672;18.690;2022-11-04T10:33:00;17.90;;;9.70;;
71080;SDS011;58740;50.672;18.690;2022-11-04T10:35:51;21.90;;;12.70;;
71080;SDS011;58740;50.672;18.690;2022-11-04T10:38:52;17.90;;;9.80;;
71080;SDS011;58740;50.672;18.690;2022-11-04T10:41:27;14.60;;;6.40;;
71080;SDS011;58740;50.672;18.690;2022-11-04T10:44:06;16.40;;;7.40;;
71080;SDS011;58740;50.672;18.690;2022-11-04T10:58:47;14.70;;;7.40;;
71080;SDS011;58740;50.672;18.690;2022-11-04T11:03:56;15.60;;;8.40;;
71080;SDS011;58740;50.672;18.690;2022-11-04T11:06:29;14.40;;;8.50;;
71080;SDS011;58740;50.672;18.690;2022-11-04T11:09:11;17.30;;;8.10;;
71080;SDS011;58740;50.672;18.690;2022-11-04T11:11:47;19.00;;;10.30;;
71080;SDS011;58740;50.672;18.690;2022-11-04T11:22:42;16.50;;;8.10;;
71080;SDS011;58740;50.672;18.690;2022-11-04T11:25:28;17.40;;;9.70;;
71080;SDS011;58740;50.672;18.690;2022-11-04T11:28:04;16.80;;;8.60;;
71080;SDS011;58740;50.672;18.690;2022-11-04T11:30:55;31.30;;;15.60;;
71080;SDS011;58740;50.672;18.690;2022-11-04T11:33:27;22.10;;;12.40;;
71080;SDS011;58740;50.672;18.690;2022-11-04T11:36:00;18.90;;;8.80;;
71080;SDS011;58740;50.672;18.690;2022-11-04T11:38:32;19.90;;;9.50;;
71080;SDS011;58740;50.672;18.690;2022-11-04T11:41:13;18.20;;;8.70;;
71080;SDS011;58740;50.672;18.690;2022-11-04T11:43:54;20.50;;;8.40;;
71080;SDS011;58740;50.672;18.690;2022-11-04T11:46:24;17.20;;;8.70;;
71080;SDS011;58740;50.672;18.690;2022-11-04T11:48:57;19.80;;;8.70;;
71080;SDS011;58740;50.672;18.690;2022-11-04T11:51:31;19.60;;;9.30;;
71080;SDS011;58740;50.672;18.690;2022-11-04T11:54:19;176.20;;;67.00;;
71080;SDS011;58740;50.672;18.690;2022-11-04T11:56:54;58.20;;;25.80;;
71080;SDS011;58740;50.672;18.690;2022-11-04T11:59:47;24.80;;;11.30;;
71080;SDS011;58740;50.672;18.690;2022-11-04T12:02:44;23.90;;;10.70;;
71080;SDS011;58740;50.672;18.690;2022-11-04T12:05:56;25.50;;;11.40;;
71080;SDS011;58740;50.672;18.690;2022-11-04T12:22:55;54.30;;;28.80;;
71080;SDS011;58740;50.672;18.690;2022-11-04T12:28:51;153.50;;;76.00;;
71080;SDS011;58740;50.672;18.690;2022-11-04T12:38:16;22.60;;;10.80;;
71080;SDS011;58740;50.672;18.690;2022-11-04T12:53:22;20.20;;;10.00;;
71080;SDS011;58740;50.672;18.690;2022-11-04T12:56:05;18.20;;;9.50;;
71080;SDS011;58740;50.672;18.690;2022-11-04T13:02:16;18.80;;;9.20;;
71080;SDS011;58740;50.672;18.690;2022-11-04T13:05:17;20.40;;;11.90;;
71080;SDS011;58740;50.672;18.690;2022-11-04T13:10:48;23.50;;;11.00;;
71080;SDS011;58740;50.672;18.690;2022-11-04T13:14:12;21.90;;;10.60;;
71080;SDS011;58740;50.672;18.690;2022-11-04T13:16:48;31.40;;;14.10;;
71080;SDS011;58740;50.672;18.690;2022-11-04T13:19:38;27.70;;;14.20;;
71080;SDS011;58740;50.672;18.690;2022-11-04T13:22:21;38.50;;;18.20;;
71080;SDS011;58740;50.672;18.690;2022-11-04T13:27:58;24.30;;;11.80;;
71080;SDS011;58740;50.672;18.690;2022-11-04T13:31:05;20.60;;;10.50;;
71080;SDS011;58740;50.672;18.690;2022-11-04T13:33:56;20.20;;;10.90;;
71080;SDS011;58740;50.672;18.690;2022-11-04T13:39:55;30.60;;;14.90;;
71080;SDS011;58740;50.672;18.690;2022-11-04T13:42:54;30.50;;;14.40;;
71080;SDS011;58740;50.672;18.690;2022-11-04T13:46:02;34.10;;;18.00;;
71080;SDS011;58740;50.672;18.690;2022-11-04T13:48:36;35.90;;;17.30;;
71080;SDS011;58740;50.672;18.690;2022-11-04T13:51:15;29.90;;;15.10;;
71080;SDS011;58740;50.672;18.690;2022-11-04T13:53:51;22.20;;;11.30;;
71080;SDS011;58740;50.672;18.690;2022-11-04T14:04:42;45.60;;;24.30;;
71080;SDS011;58740;50.672;18.690;2022-11-04T14:07:16;27.40;;;13.10;;
71080;SDS011;58740;50.672;18.690;2022-11-04T14:09:54;25.50;;;13.40;;
71080;SDS011;58740;50.672;18.690;2022-11-04T14:12:30;26.80;;;14.00;;
71080;SDS011;58740;50.672;18.690;2022-11-04T14:15:07;27.10;;;14.10;;
71080;SDS011;58740;50.672;18.690;2022-11-04T14:22:52;29.60;;;15.80;;
71080;SDS011;58740;50.672;18.690;2022-11-04T14:25:35;28.80;;;15.60;;
71080;SDS011;58740;50.672;18.690;2022-11-04T14:39:03;43.60;;;19.80;;
71080;SDS011;58740;50.672;18.690;2022-11-04T14:41:55;38.00;;;17.40;;
71080;SDS011;58740;50.672;18.690;2022-11-04T14:44:43;41.50;;;19.50;;
71080;SDS011;58740;50.672;18.690;2022-11-04T14:47:30;42.00;;;20.80;;
71080;SDS011;58740;50.672;18.690;2022-11-04T14:50:02;50.60;;;23.90;;
71080;SDS011;58740;50.672;18.690;2022-11-04T14:55:15;46.90;;;24.20;;
71080;SDS011;58740;50.672;18.690;2022-11-04T14:57:51;55.00;;;23.10;;
71080;SDS011;58740;50.672;18.690;2022-11-04T15:03:11;48.20;;;23.60;;
71080;SDS011;58740;50.672;18.690;2022-11-04T15:06:09;45.20;;;22.90;;
71080;SDS011;58740;50.672;18.690;2022-11-04T15:13:50;47.00;;;19.80;;
71080;SDS011;58740;50.672;18.690;2022-11-04T15:16:25;34.20;;;17.20;;
71080;SDS011;58740;50.672;18.690;2022-11-04T15:18:57;38.50;;;16.80;;
71080;SDS011;58740;50.672;18.690;2022-11-04T15:21:26;29.80;;;15.30;;
71080;SDS011;58740;50.672;18.690;2022-11-04T15:23:54;31.90;;;16.90;;
71080;SDS011;58740;50.672;18.690;2022-11-04T15:26:28;35.40;;;18.40;;
71080;SDS011;58740;50.672;18.690;2022-11-04T15:29:10;36.30;;;17.30;;
71080;SDS011;58740;50.672;18.690;2022-11-04T15:31:51;34.30;;;17.10;;
71080;SDS011;58740;50.672;18.690;2022-11-04T15:34:32;38.20;;;18.00;;
71080;SDS011;58740;50.672;18.690;2022-11-04T15:37:03;30.90;;;16.10;;
71080;SDS011;58740;50.672;18.690;2022-11-04T15:39:39;35.70;;;17.40;;
71080;SDS011;58740;50.672;18.690;2022-11-04T15:42:15;32.00;;;16.60;;
71080;SDS011;58740;50.672;18.690;2022-11-04T15:51:18;27.70;;;15.20;;
71080;SDS011;58740;50.672;18.690;2022-11-04T15:54:02;31.70;;;16.50;;
71080;SDS011;58740;50.672;18.690;2022-11-04T15:56:38;39.20;;;20.50;;
71080;SDS011;58740;50.672;18.690;2022-11-04T15:59:16;47.10;;;24.50;;
71080;SDS011;58740;50.672;18.690;2022-11-04T16:01:49;43.90;;;23.50;;
71080;SDS011;58740;50.672;18.690;2022-11-04T16:04:22;41.50;;;22.30;;
71080;SDS011;58740;50.672;18.690;2022-11-04T16:07:20;42.50;;;20.10;;
71080;SDS011;58740;50.672;18.690;2022-11-04T16:09:52;36.70;;;19.20;;
71080;SDS011;58740;50.672;18.690;2022-11-04T16:12:33;47.00;;;20.60;;
71080;SDS011;58740;50.672;18.690;2022-11-04T16:15:02;39.30;;;18.80;;
71080;SDS011;58740;50.672;18.690;2022-11-04T16:17:31;34.50;;;18.40;;
71080;SDS011;58740;50.672;18.690;2022-11-04T16:20:01;35.20;;;18.60;;
71080;SDS011;58740;50.672;18.690;2022-11-04T16:22:36;45.30;;;21.10;;
71080;SDS011;58740;50.672;18.690;2022-11-04T16:25:08;41.90;;;19.10;;
71080;SDS011;58740;50.672;18.690;2022-11-04T16:27:49;37.60;;;19.10;;
71080;SDS011;58740;50.672;18.690;2022-11-04T16:30:20;41.70;;;21.20;;
71080;SDS011;58740;50.672;18.690;2022-11-04T16:32:51;41.70;;;19.70;;
71080;SDS011;58740;50.672;18.690;2022-11-04T16:35:24;36.00;;;18.40;;
71080;SDS011;58740;50.672;18.690;2022-11-04T16:37:55;29.90;;;17.50;;
71080;SDS011;58740;50.672;18.690;2022-11-04T16:40:23;28.30;;;15.80;;
71080;SDS011;58740;50.672;18.690;2022-11-04T16:42:52;32.70;;;17.60;;
71080;SDS011;58740;50.672;18.690;2022-11-04T16:47:53;30.80;;;16.70;;
71080;SDS011;58740;50.672;18.690;2022-11-04T16:50:23;33.00;;;16.10;;
71080;SDS011;58740;50.672;18.690;2022-11-04T16:52:51;32.30;;;16.90;;
71080;SDS011;58740;50.672;18.690;2022-11-04T16:55:21;31.40;;;16.50;;
71080;SDS011;58740;50.672;18.690;2022-11-04T16:57:55;30.20;;;16.90;;
71080;SDS011;58740;50.672;18.690;2022-11-04T17:00:27;34.10;;;16.70;;
71080;SDS011;58740;50.672;18.690;2022-11-04T17:03:13;31.00;;;15.00;;
71080;SDS011;58740;50.672;18.690;2022-11-04T17:05:50;29.10;;;15.30;;
71080;SDS011;58740;50.672;18.690;2022-11-04T17:08:21;33.40;;;16.10;;
71080;SDS011;58740;50.672;18.690;2022-11-04T17:10:50;32.20;;;18.40;;
71080;SDS011;58740;50.672;18.690;2022-11-04T17:13:18;36.40;;;19.20;;
71080;SDS011;58740;50.672;18.690;2022-11-04T17:15:46;37.20;;;19.60;;
71080;SDS011;58740;50.672;18.690;2022-11-04T17:18:16;40.80;;;22.60;;
71080;SDS011;58740;50.672;18.690;2022-11-04T17:20:48;41.40;;;22.90;;
71080;SDS011;58740;50.672;18.690;2022-11-04T17:23:18;44.10;;;24.80;;
71080;SDS011;58740;50.672;18.690;2022-11-04T17:25:47;38.80;;;23.10;;
71080;SDS011;58740;50.672;18.690;2022-11-04T17:28:15;40.80;;;22.10;;
71080;SDS011;58740;50.672;18.690;2022-11-04T17:30:43;44.40;;;24.70;;
71080;SDS011;58740;50.672;18.690;2022-11-04T17:33:15;48.70;;;24.60;;
71080;SDS011;58740;50.672;18.690;2022-11-04T17:35:46;46.30;;;22.90;;
71080;SDS011;58740;50.672;18.690;2022-11-04T17:38:17;49.90;;;22.90;;
71080;SDS011;58740;50.672;18.690;2022-11-04T17:40:45;41.60;;;22.20;;
71080;SDS011;58740;50.672;18.690;2022-11-04T17:43:32;45.40;;;23.10;;
71080;SDS011;58740;50.672;18.690;2022-11-04T17:46:18;36.00;;;20.80;;
71080;SDS011;58740;50.672;18.690;2022-11-04T17:49:13;37.40;;;20.20;;